sensor_id;sensor_type;location;lat;lon;timestamp;temperature;humidity
30889;DHT22;51092;50.874;7.024;2023-08-12T00:00:02;20.50;99.90
30889;DHT22;51092;50.874;7.024;2023-08-12T00:01:09;20.40;99.90
30889;DHT22;51092;50.874;7.024;2023-08-12T00:02:12;20.40;99.90
30889;DHT22;51092;50.874;7.024;2023-08-12T00:03:15;20.40;99.90
30889;DHT22;51092;50.874;7.024;2023-08-12T00:04:17;20.40;99.90
30889;DHT22;51092;50.874;7.024;2023-08-12T00:05:19;20.40;99.90
30889;DHT22;51092;50.874;7.024;2023-08-12T00:06:21;20.40;99.90
30889;DHT22;51092;50.874;7.024;2023-08-12T00:07:23;20.40;99.90
30889;DHT22;51092;50.874;7.024;2023-08-12T00:08:25;20.40;99.90
30889;DHT22;51092;50.874;7.024;2023-08-12T00:09:27;20.50;99.90
30889;DHT22;51092;50.874;7.024;2023-08-12T00:10:29;20.50;99.90
30889;DHT22;51092;50.874;7.024;2023-08-12T00:11:31;20.50;99.90
30889;DHT22;51092;50.874;7.024;2023-08-12T00:12:34;20.50;99.90
30889;DHT22;51092;50.874;7.024;2023-08-12T00:13:36;20.50;99.90
30889;DHT22;51092;50.874;7.024;2023-08-12T00:14:38;20.50;99.90
30889;DHT22;51092;50.874;7.024;2023-08-12T00:15:39;20.50;99.90
30889;DHT22;51092;50.874;7.024;2023-08-12T00:16:42;20.40;99.90
30889;DHT22;51092;50.874;7.024;2023-08-12T00:17:44;20.40;99.90
30889;DHT22;51092;50.874;7.024;2023-08-12T00:18:48;20.40;99.90
30889;DHT22;51092;50.874;7.024;2023-08-12T00:19:49;20.40;99.90
30889;DHT22;51092;50.874;7.024;2023-08-12T00:20:51;20.40;99.90
30889;DHT22;51092;50.874;7.024;2023-08-12T00:21:53;20.50;99.90
30889;DHT22;51092;50.874;7.024;2023-08-12T00:22:56;20.50;99.90
30889;DHT22;51092;50.874;7.024;2023-08-12T00:23:57;20.40;99.90
30889;DHT22;51092;50.874;7.024;2023-08-12T00:25:00;20.40;99.90
30889;DHT22;51092;50.874;7.024;2023-08-12T00:26:01;20.40;99.90
30889;DHT22;51092;50.874;7.024;2023-08-12T00:27:04;20.50;99.90
30889;DHT22;51092;50.874;7.024;2023-08-12T00:28:05;20.50;99.90
30889;DHT22;51092;50.874;7.024;2023-08-12T00:29:07;20.50;99.90
30889;DHT22;51092;50.874;7.024;2023-08-12T00:30:08;20.60;99.90
30889;DHT22;51092;50.874;7.024;2023-08-12T00:31:10;20.60;99.90
30889;DHT22;51092;50.874;7.024;2023-08-12T00:32:12;20.60;99.90
30889;DHT22;51092;50.874;7.024;2023-08-12T00:33:14;20.60;99.90
30889;DHT22;51092;50.874;7.024;2023-08-12T00:34:17;20.60;99.90
30889;DHT22;51092;50.874;7.024;2023-08-12T00:35:20;20.60;99.90
30889;DHT22;51092;50.874;7.024;2023-08-12T00:36:21;20.70;99.90
30889;DHT22;51092;50.874;7.024;2023-08-12T00:37:24;20.70;99.90
30889;DHT22;51092;50.874;7.024;2023-08-12T00:38:25;20.80;99.90
30889;DHT22;51092;50.874;7.024;2023-08-12T00:39:28;20.80;99.90
30889;DHT22;51092;50.874;7.024;2023-08-12T00:40:29;20.70;99.90
30889;DHT22;51092;50.874;7.024;2023-08-12T00:41:32;20.70;99.90
30889;DHT22;51092;50.874;7.024;2023-08-12T00:42:34;20.60;99.90
30889;DHT22;51092;50.874;7.024;2023-08-12T00:43:36;20.50;99.90
30889;DHT22;51092;50.874;7.024;2023-08-12T00:44:38;20.50;99.90
30889;DHT22;51092;50.874;7.024;2023-08-12T00:45:40;20.50;99.90
30889;DHT22;51092;50.874;7.024;2023-08-12T00:46:43;20.50;99.90
30889;DHT22;51092;50.874;7.024;2023-08-12T00:47:44;20.50;99.90
30889;DHT22;51092;50.874;7.024;2023-08-12T00:48:47;20.50;99.90
30889;DHT22;51092;50.874;7.024;2023-08-12T00:49:50;20.40;99.90
30889;DHT22;51092;50.874;7.024;2023-08-12T00:50:53;20.40;99.90
30889;DHT22;51092;50.874;7.024;2023-08-12T00:51:55;20.40;99.90
30889;DHT22;51092;50.874;7.024;2023-08-12T00:52:57;20.40;99.90
30889;DHT22;51092;50.874;7.024;2023-08-12T00:53:59;20.30;99.90
30889;DHT22;51092;50.874;7.024;2023-08-12T00:55:05;20.30;99.90
30889;DHT22;51092;50.874;7.024;2023-08-12T00:56:06;20.30;99.90
30889;DHT22;51092;50.874;7.024;2023-08-12T00:57:09;20.30;99.90
30889;DHT22;51092;50.874;7.024;2023-08-12T00:58:11;20.30;99.90
30889;DHT22;51092;50.874;7.024;2023-08-12T00:59:13;20.30;99.90
30889;DHT22;51092;50.874;7.024;2023-08-12T01:00:16;20.50;99.90
30889;DHT22;51092;50.874;7.024;2023-08-12T01:01:21;20.60;99.90
30889;DHT22;51092;50.874;7.024;2023-08-12T01:02:22;20.60;99.90
30889;DHT22;51092;50.874;7.024;2023-08-12T01:03:25;20.60;99.90
30889;DHT22;51092;50.874;7.024;2023-08-12T01:04:27;20.60;99.90
30889;DHT22;51092;50.874;7.024;2023-08-12T01:05:31;20.60;99.90
30889;DHT22;51092;50.874;7.024;2023-08-12T01:06:32;20.60;99.90
30889;DHT22;51092;50.874;7.024;2023-08-12T01:07:35;20.60;99.90
30889;DHT22;51092;50.874;7.024;2023-08-12T01:08:37;20.60;99.90
30889;DHT22;51092;50.874;7.024;2023-08-12T01:09:39;20.60;99.90
30889;DHT22;51092;50.874;7.024;2023-08-12T01:10:49;20.60;99.90
30889;DHT22;51092;50.874;7.024;2023-08-12T01:11:59;20.60;99.90
30889;DHT22;51092;50.874;7.024;2023-08-12T01:13:14;20.50;99.90
30889;DHT22;51092;50.874;7.024;2023-08-12T01:14:22;20.50;99.90
30889;DHT22;51092;50.874;7.024;2023-08-12T01:15:25;20.50;99.90
30889;DHT22;51092;50.874;7.024;2023-08-12T01:16:30;20.50;99.90
30889;DHT22;51092;50.874;7.024;2023-08-12T01:17:35;20.50;99.90
30889;DHT22;51092;50.874;7.024;2023-08-12T01:18:38;20.50;99.90
30889;DHT22;51092;50.874;7.024;2023-08-12T01:19:42;20.50;99.90
30889;DHT22;51092;50.874;7.024;2023-08-12T01:20:47;20.50;99.90
30889;DHT22;51092;50.874;7.024;2023-08-12T01:21:49;20.50;99.90
30889;DHT22;51092;50.874;7.024;2023-08-12T01:22:57;20.60;99.90
30889;DHT22;51092;50.874;7.024;2023-08-12T01:24:01;20.60;99.90
30889;DHT22;51092;50.874;7.024;2023-08-12T01:25:03;20.60;99.90
30889;DHT22;51092;50.874;7.024;2023-08-12T01:26:05;20.60;99.90
30889;DHT22;51092;50.874;7.024;2023-08-12T01:27:07;20.50;99.90
30889;DHT22;51092;50.874;7.024;2023-08-12T01:28:10;20.50;99.90
30889;DHT22;51092;50.874;7.024;2023-08-12T01:29:11;20.60;99.90
30889;DHT22;51092;50.874;7.024;2023-08-12T01:30:14;20.60;99.90
30889;DHT22;51092;50.874;7.024;2023-08-12T01:31:23;20.60;99.90
30889;DHT22;51092;50.874;7.024;2023-08-12T01:32:32;20.50;99.90
30889;DHT22;51092;50.874;7.024;2023-08-12T01:33:40;20.50;99.90
30889;DHT22;51092;50.874;7.024;2023-08-12T01:34:48;20.50;99.90
30889;DHT22;51092;50.874;7.024;2023-08-12T01:35:54;20.50;99.90
30889;DHT22;51092;50.874;7.024;2023-08-12T01:36:58;20.50;99.90
30889;DHT22;51092;50.874;7.024;2023-08-12T01:38:02;20.50;99.90
30889;DHT22;51092;50.874;7.024;2023-08-12T01:39:08;20.50;99.90
30889;DHT22;51092;50.874;7.024;2023-08-12T01:40:11;20.50;99.90
30889;DHT22;51092;50.874;7.024;2023-08-12T01:41:16;20.40;99.90
30889;DHT22;51092;50.874;7.024;2023-08-12T01:42:20;20.40;99.90
30889;DHT22;51092;50.874;7.024;2023-08-12T01:43:21;20.40;99.90
30889;DHT22;51092;50.874;7.024;2023-08-12T01:44:25;20.40;99.90
30889;DHT22;51092;50.874;7.024;2023-08-12T01:45:26;20.40;99.90
30889;DHT22;51092;50.874;7.024;2023-08-12T01:46:29;20.40;99.90
30889;DHT22;51092;50.874;7.024;2023-08-12T01:47:30;20.40;99.90
30889;DHT22;51092;50.874;7.024;2023-08-12T01:48:33;20.30;99.90
30889;DHT22;51092;50.874;7.024;2023-08-12T01:49:34;20.40;99.90
30889;DHT22;51092;50.874;7.024;2023-08-12T01:50:36;20.40;99.90
30889;DHT22;51092;50.874;7.024;2023-08-12T01:51:38;20.40;99.90
30889;DHT22;51092;50.874;7.024;2023-08-12T01:52:40;20.40;99.90
30889;DHT22;51092;50.874;7.024;2023-08-12T01:53:42;20.30;99.90
30889;DHT22;51092;50.874;7.024;2023-08-12T01:54:45;20.30;99.90
30889;DHT22;51092;50.874;7.024;2023-08-12T01:55:49;20.40;99.90
30889;DHT22;51092;50.874;7.024;2023-08-12T01:56:52;20.30;99.90
30889;DHT22;51092;50.874;7.024;2023-08-12T01:57:54;20.30;99.90
30889;DHT22;51092;50.874;7.024;2023-08-12T01:58:55;20.30;99.90
30889;DHT22;51092;50.874;7.024;2023-08-12T01:59:58;20.30;99.90
30889;DHT22;51092;50.874;7.024;2023-08-12T02:00:59;20.30;99.90
30889;DHT22;51092;50.874;7.024;2023-08-12T02:02:02;20.40;99.90
30889;DHT22;51092;50.874;7.024;2023-08-12T02:03:04;20.40;99.90
30889;DHT22;51092;50.874;7.024;2023-08-12T02:04:06;20.30;99.90
30889;DHT22;51092;50.874;7.024;2023-08-12T02:05:08;20.30;99.90
30889;DHT22;51092;50.874;7.024;2023-08-12T02:06:10;20.30;99.90
30889;DHT22;51092;50.874;7.024;2023-08-12T02:07:12;20.30;99.90
30889;DHT22;51092;50.874;7.024;2023-08-12T02:08:14;20.30;99.90
30889;DHT22;51092;50.874;7.024;2023-08-12T02:09:16;20.40;99.90
30889;DHT22;51092;50.874;7.024;2023-08-12T02:10:19;20.40;99.90
30889;DHT22;51092;50.874;7.024;2023-08-12T02:11:21;20.40;99.90
30889;DHT22;51092;50.874;7.024;2023-08-12T02:12:23;20.40;99.90
30889;DHT22;51092;50.874;7.024;2023-08-12T02:13:25;20.40;99.90
30889;DHT22;51092;50.874;7.024;2023-08-12T02:14:27;20.40;99.90
30889;DHT22;51092;50.874;7.024;2023-08-12T02:15:29;20.40;99.90
30889;DHT22;51092;50.874;7.024;2023-08-12T02:16:31;20.40;99.90
30889;DHT22;51092;50.874;7.024;2023-08-12T02:17:33;20.40;99.90
30889;DHT22;51092;50.874;7.024;2023-08-12T02:18:35;20.40;99.90
30889;DHT22;51092;50.874;7.024;2023-08-12T02:19:36;20.40;99.90
30889;DHT22;51092;50.874;7.024;2023-08-12T02:20:40;20.40;99.90
30889;DHT22;51092;50.874;7.024;2023-08-12T02:21:42;20.40;99.90
30889;DHT22;51092;50.874;7.024;2023-08-12T02:22:44;20.40;99.90
30889;DHT22;51092;50.874;7.024;2023-08-12T02:23:46;20.40;99.90
30889;DHT22;51092;50.874;7.024;2023-08-12T02:24:48;20.40;99.90
30889;DHT22;51092;50.874;7.024;2023-08-12T02:25:52;20.40;99.90
30889;DHT22;51092;50.874;7.024;2023-08-12T02:26:55;20.40;99.90
30889;DHT22;51092;50.874;7.024;2023-08-12T02:27:57;20.30;99.90
30889;DHT22;51092;50.874;7.024;2023-08-12T02:28:58;20.30;99.90
30889;DHT22;51092;50.874;7.024;2023-08-12T02:30:01;20.40;99.90
30889;DHT22;51092;50.874;7.024;2023-08-12T02:31:02;20.30;99.90
30889;DHT22;51092;50.874;7.024;2023-08-12T02:32:05;20.30;99.90
30889;DHT22;51092;50.874;7.024;2023-08-12T02:33:06;20.20;99.90
30889;DHT22;51092;50.874;7.024;2023-08-12T02:34:09;20.30;99.90
30889;DHT22;51092;50.874;7.024;2023-08-12T02:35:11;20.30;99.90
30889;DHT22;51092;50.874;7.024;2023-08-12T02:36:13;20.40;99.90
30889;DHT22;51092;50.874;7.024;2023-08-12T02:37:15;20.30;99.90
30889;DHT22;51092;50.874;7.024;2023-08-12T02:38:17;20.30;99.90
30889;DHT22;51092;50.874;7.024;2023-08-12T02:39:18;20.30;99.90
30889;DHT22;51092;50.874;7.024;2023-08-12T02:40:21;20.30;99.90
30889;DHT22;51092;50.874;7.024;2023-08-12T02:41:24;20.30;99.90
30889;DHT22;51092;50.874;7.024;2023-08-12T02:42:26;20.30;99.90
30889;DHT22;51092;50.874;7.024;2023-08-12T02:43:28;20.20;99.90
30889;DHT22;51092;50.874;7.024;2023-08-12T02:44:30;20.20;99.90
30889;DHT22;51092;50.874;7.024;2023-08-12T02:45:32;20.20;99.90
30889;DHT22;51092;50.874;7.024;2023-08-12T02:46:34;20.20;99.90
30889;DHT22;51092;50.874;7.024;2023-08-12T02:47:36;20.20;99.90
30889;DHT22;51092;50.874;7.024;2023-08-12T02:48:38;20.20;99.90
30889;DHT22;51092;50.874;7.024;2023-08-12T02:49:40;20.20;99.90
30889;DHT22;51092;50.874;7.024;2023-08-12T02:50:42;20.20;99.90
30889;DHT22;51092;50.874;7.024;2023-08-12T02:51:43;20.10;99.90
30889;DHT22;51092;50.874;7.024;2023-08-12T02:52:46;20.10;99.90
30889;DHT22;51092;50.874;7.024;2023-08-12T02:53:47;20.10;99.90
30889;DHT22;51092;50.874;7.024;2023-08-12T02:54:50;20.10;99.90
30889;DHT22;51092;50.874;7.024;2023-08-12T02:55:52;20.10;99.90
30889;DHT22;51092;50.874;7.024;2023-08-12T02:56:55;20.00;99.90
30889;DHT22;51092;50.874;7.024;2023-08-12T02:57:57;20.00;99.90
30889;DHT22;51092;50.874;7.024;2023-08-12T02:59:00;20.00;99.90
30889;DHT22;51092;50.874;7.024;2023-08-12T03:00:02;20.10;99.90
30889;DHT22;51092;50.874;7.024;2023-08-12T03:01:06;20.00;99.90
30889;DHT22;51092;50.874;7.024;2023-08-12T03:02:08;20.00;99.90
30889;DHT22;51092;50.874;7.024;2023-08-12T03:03:10;20.00;99.90
30889;DHT22;51092;50.874;7.024;2023-08-12T03:04:11;20.10;99.90
30889;DHT22;51092;50.874;7.024;2023-08-12T03:05:14;20.10;99.90
30889;DHT22;51092;50.874;7.024;2023-08-12T03:06:16;20.10;99.90
30889;DHT22;51092;50.874;7.024;2023-08-12T03:07:18;20.10;99.90
30889;DHT22;51092;50.874;7.024;2023-08-12T03:08:20;20.10;99.90
30889;DHT22;51092;50.874;7.024;2023-08-12T03:09:22;20.00;99.90
30889;DHT22;51092;50.874;7.024;2023-08-12T03:10:24;20.00;99.90
30889;DHT22;51092;50.874;7.024;2023-08-12T03:11:26;20.00;99.90
30889;DHT22;51092;50.874;7.024;2023-08-12T03:12:29;20.00;99.90
30889;DHT22;51092;50.874;7.024;2023-08-12T03:13:32;20.00;99.90
30889;DHT22;51092;50.874;7.024;2023-08-12T03:14:33;20.00;99.90
30889;DHT22;51092;50.874;7.024;2023-08-12T03:15:38;20.10;99.90
30889;DHT22;51092;50.874;7.024;2023-08-12T03:16:40;20.00;99.90
30889;DHT22;51092;50.874;7.024;2023-08-12T03:17:42;19.90;99.90
30889;DHT22;51092;50.874;7.024;2023-08-12T03:18:43;19.90;99.90
30889;DHT22;51092;50.874;7.024;2023-08-12T03:19:46;19.90;99.90
30889;DHT22;51092;50.874;7.024;2023-08-12T03:20:48;19.90;99.90
30889;DHT22;51092;50.874;7.024;2023-08-12T03:21:50;19.90;99.90
30889;DHT22;51092;50.874;7.024;2023-08-12T03:22:52;19.90;99.90
30889;DHT22;51092;50.874;7.024;2023-08-12T03:23:53;19.90;99.90
30889;DHT22;51092;50.874;7.024;2023-08-12T03:24:56;19.90;99.90
30889;DHT22;51092;50.874;7.024;2023-08-12T03:25:57;19.90;99.90
30889;DHT22;51092;50.874;7.024;2023-08-12T03:27:00;19.90;99.90
30889;DHT22;51092;50.874;7.024;2023-08-12T03:28:03;19.90;99.90
30889;DHT22;51092;50.874;7.024;2023-08-12T03:29:06;19.90;99.90
30889;DHT22;51092;50.874;7.024;2023-08-12T03:30:09;19.90;99.90
30889;DHT22;51092;50.874;7.024;2023-08-12T03:31:11;19.90;99.90
30889;DHT22;51092;50.874;7.024;2023-08-12T03:32:13;19.90;99.90
30889;DHT22;51092;50.874;7.024;2023-08-12T03:33:15;19.90;99.90
30889;DHT22;51092;50.874;7.024;2023-08-12T03:34:17;19.90;99.90
30889;DHT22;51092;50.874;7.024;2023-08-12T03:35:21;19.90;99.90
30889;DHT22;51092;50.874;7.024;2023-08-12T03:36:23;19.90;99.90
30889;DHT22;51092;50.874;7.024;2023-08-12T03:37:25;19.80;99.90
30889;DHT22;51092;50.874;7.024;2023-08-12T03:38:27;19.80;99.90
30889;DHT22;51092;50.874;7.024;2023-08-12T03:39:30;19.80;99.90
30889;DHT22;51092;50.874;7.024;2023-08-12T03:40:31;19.80;99.90
30889;DHT22;51092;50.874;7.024;2023-08-12T03:41:34;19.90;99.90
30889;DHT22;51092;50.874;7.024;2023-08-12T03:42:35;19.80;99.90
30889;DHT22;51092;50.874;7.024;2023-08-12T03:43:39;19.90;99.90
30889;DHT22;51092;50.874;7.024;2023-08-12T03:44:40;19.90;99.90
30889;DHT22;51092;50.874;7.024;2023-08-12T03:45:43;19.90;99.90
30889;DHT22;51092;50.874;7.024;2023-08-12T03:46:45;19.90;99.90
30889;DHT22;51092;50.874;7.024;2023-08-12T03:47:47;19.90;99.90
30889;DHT22;51092;50.874;7.024;2023-08-12T03:48:49;19.80;99.90
30889;DHT22;51092;50.874;7.024;2023-08-12T03:49:50;19.80;99.90
30889;DHT22;51092;50.874;7.024;2023-08-12T03:50:52;19.80;99.90
30889;DHT22;51092;50.874;7.024;2023-08-12T03:51:54;19.80;99.90
30889;DHT22;51092;50.874;7.024;2023-08-12T03:52:56;19.80;99.90
30889;DHT22;51092;50.874;7.024;2023-08-12T03:53:58;19.80;99.90
30889;DHT22;51092;50.874;7.024;2023-08-12T03:55:01;19.80;99.90
30889;DHT22;51092;50.874;7.024;2023-08-12T03:56:02;19.80;99.90
30889;DHT22;51092;50.874;7.024;2023-08-12T03:57:05;19.80;99.90
30889;DHT22;51092;50.874;7.024;2023-08-12T03:58:06;19.70;99.90
30889;DHT22;51092;50.874;7.024;2023-08-12T03:59:10;19.70;99.90
30889;DHT22;51092;50.874;7.024;2023-08-12T04:00:12;19.70;99.90
30889;DHT22;51092;50.874;7.024;2023-08-12T04:01:15;19.70;99.90
30889;DHT22;51092;50.874;7.024;2023-08-12T04:02:16;19.70;99.90
30889;DHT22;51092;50.874;7.024;2023-08-12T04:03:19;19.60;99.90
30889;DHT22;51092;50.874;7.024;2023-08-12T04:04:20;19.60;99.90
30889;DHT22;51092;50.874;7.024;2023-08-12T04:05:23;19.60;99.90
30889;DHT22;51092;50.874;7.024;2023-08-12T04:06:24;19.60;99.90
30889;DHT22;51092;50.874;7.024;2023-08-12T04:07:27;19.60;99.90
30889;DHT22;51092;50.874;7.024;2023-08-12T04:08:28;19.60;99.90
30889;DHT22;51092;50.874;7.024;2023-08-12T04:09:33;19.60;99.90
30889;DHT22;51092;50.874;7.024;2023-08-12T04:10:34;19.60;99.90
30889;DHT22;51092;50.874;7.024;2023-08-12T04:11:37;19.60;99.90
30889;DHT22;51092;50.874;7.024;2023-08-12T04:12:40;19.50;99.90
30889;DHT22;51092;50.874;7.024;2023-08-12T04:13:43;19.50;99.90
30889;DHT22;51092;50.874;7.024;2023-08-12T04:14:46;19.50;99.90
30889;DHT22;51092;50.874;7.024;2023-08-12T04:15:49;19.50;99.90
30889;DHT22;51092;50.874;7.024;2023-08-12T04:16:51;19.50;99.90
30889;DHT22;51092;50.874;7.024;2023-08-12T04:17:53;19.50;99.90
30889;DHT22;51092;50.874;7.024;2023-08-12T04:18:57;19.50;99.90
30889;DHT22;51092;50.874;7.024;2023-08-12T04:20:00;19.50;99.90
30889;DHT22;51092;50.874;7.024;2023-08-12T04:21:01;19.50;99.90
30889;DHT22;51092;50.874;7.024;2023-08-12T04:22:05;19.40;99.90
30889;DHT22;51092;50.874;7.024;2023-08-12T04:23:07;19.40;99.90
30889;DHT22;51092;50.874;7.024;2023-08-12T04:24:08;19.40;99.90
30889;DHT22;51092;50.874;7.024;2023-08-12T04:25:11;19.40;99.90
30889;DHT22;51092;50.874;7.024;2023-08-12T04:26:12;19.40;99.90
30889;DHT22;51092;50.874;7.024;2023-08-12T04:27:22;19.40;99.90
30889;DHT22;51092;50.874;7.024;2023-08-12T04:28:24;19.30;99.90
30889;DHT22;51092;50.874;7.024;2023-08-12T04:29:26;19.40;99.90
30889;DHT22;51092;50.874;7.024;2023-08-12T04:30:29;19.40;99.90
30889;DHT22;51092;50.874;7.024;2023-08-12T04:31:32;19.30;99.90
30889;DHT22;51092;50.874;7.024;2023-08-12T04:32:33;19.40;99.90
30889;DHT22;51092;50.874;7.024;2023-08-12T04:33:36;19.40;99.90
30889;DHT22;51092;50.874;7.024;2023-08-12T04:34:37;19.40;99.90
30889;DHT22;51092;50.874;7.024;2023-08-12T04:35:40;19.40;99.90
30889;DHT22;51092;50.874;7.024;2023-08-12T04:36:42;19.40;99.90
30889;DHT22;51092;50.874;7.024;2023-08-12T04:37:45;19.30;99.90
30889;DHT22;51092;50.874;7.024;2023-08-12T04:38:46;19.30;99.90
30889;DHT22;51092;50.874;7.024;2023-08-12T04:39:48;19.40;99.90
30889;DHT22;51092;50.874;7.024;2023-08-12T04:40:50;19.30;99.90
30889;DHT22;51092;50.874;7.024;2023-08-12T04:41:54;19.40;99.90
30889;DHT22;51092;50.874;7.024;2023-08-12T04:42:56;19.40;99.90
30889;DHT22;51092;50.874;7.024;2023-08-12T04:43:58;19.40;99.90
30889;DHT22;51092;50.874;7.024;2023-08-12T04:45:00;19.30;99.90
30889;DHT22;51092;50.874;7.024;2023-08-12T04:46:03;19.40;99.90
30889;DHT22;51092;50.874;7.024;2023-08-12T04:47:05;19.40;99.90
30889;DHT22;51092;50.874;7.024;2023-08-12T04:48:07;19.30;99.90
30889;DHT22;51092;50.874;7.024;2023-08-12T04:49:09;19.40;99.90
30889;DHT22;51092;50.874;7.024;2023-08-12T04:50:11;19.40;99.90
30889;DHT22;51092;50.874;7.024;2023-08-12T04:51:12;19.40;99.90
30889;DHT22;51092;50.874;7.024;2023-08-12T04:52:15;19.40;99.90
30889;DHT22;51092;50.874;7.024;2023-08-12T04:53:15;19.40;99.90
30889;DHT22;51092;50.874;7.024;2023-08-12T04:54:18;19.50;99.90
30889;DHT22;51092;50.874;7.024;2023-08-12T04:55:20;19.40;99.90
30889;DHT22;51092;50.874;7.024;2023-08-12T04:56:21;19.40;99.90
30889;DHT22;51092;50.874;7.024;2023-08-12T04:57:25;19.50;99.90
30889;DHT22;51092;50.874;7.024;2023-08-12T04:58:28;19.50;99.90
30889;DHT22;51092;50.874;7.024;2023-08-12T04:59:30;19.50;99.90
30889;DHT22;51092;50.874;7.024;2023-08-12T05:00:32;19.60;99.90
30889;DHT22;51092;50.874;7.024;2023-08-12T05:01:36;19.60;99.90
30889;DHT22;51092;50.874;7.024;2023-08-12T05:02:37;19.70;99.90
30889;DHT22;51092;50.874;7.024;2023-08-12T05:03:40;19.70;99.90
30889;DHT22;51092;50.874;7.024;2023-08-12T05:04:42;19.70;99.90
30889;DHT22;51092;50.874;7.024;2023-08-12T05:05:49;19.70;99.90
30889;DHT22;51092;50.874;7.024;2023-08-12T05:06:51;19.80;99.90
30889;DHT22;51092;50.874;7.024;2023-08-12T05:07:53;19.90;99.90
30889;DHT22;51092;50.874;7.024;2023-08-12T05:08:55;19.90;99.90
30889;DHT22;51092;50.874;7.024;2023-08-12T05:09:57;19.90;99.90
30889;DHT22;51092;50.874;7.024;2023-08-12T05:10:59;19.90;99.90
30889;DHT22;51092;50.874;7.024;2023-08-12T05:12:01;19.90;99.90
30889;DHT22;51092;50.874;7.024;2023-08-12T05:13:03;20.00;99.90
30889;DHT22;51092;50.874;7.024;2023-08-12T05:14:05;20.00;99.90
30889;DHT22;51092;50.874;7.024;2023-08-12T05:15:08;20.00;99.90
30889;DHT22;51092;50.874;7.024;2023-08-12T05:16:11;20.00;99.90
30889;DHT22;51092;50.874;7.024;2023-08-12T05:17:14;20.00;99.90
30889;DHT22;51092;50.874;7.024;2023-08-12T05:18:16;20.10;99.90
30889;DHT22;51092;50.874;7.024;2023-08-12T05:19:18;20.10;99.90
30889;DHT22;51092;50.874;7.024;2023-08-12T05:20:20;20.10;99.90
30889;DHT22;51092;50.874;7.024;2023-08-12T05:21:22;20.10;99.90
30889;DHT22;51092;50.874;7.024;2023-08-12T05:22:25;20.10;99.90
30889;DHT22;51092;50.874;7.024;2023-08-12T05:23:26;20.10;99.90
30889;DHT22;51092;50.874;7.024;2023-08-12T05:24:28;20.00;99.90
30889;DHT22;51092;50.874;7.024;2023-08-12T05:25:30;20.00;99.90
30889;DHT22;51092;50.874;7.024;2023-08-12T05:26:33;20.00;99.90
30889;DHT22;51092;50.874;7.024;2023-08-12T05:27:35;20.00;99.90
30889;DHT22;51092;50.874;7.024;2023-08-12T05:28:37;20.00;99.90
30889;DHT22;51092;50.874;7.024;2023-08-12T05:29:38;20.00;99.90
30889;DHT22;51092;50.874;7.024;2023-08-12T05:30:42;20.10;99.90
30889;DHT22;51092;50.874;7.024;2023-08-12T05:31:44;20.10;99.90
30889;DHT22;51092;50.874;7.024;2023-08-12T05:32:47;20.10;99.90
30889;DHT22;51092;50.874;7.024;2023-08-12T05:33:49;20.10;99.90
30889;DHT22;51092;50.874;7.024;2023-08-12T05:34:52;20.10;99.90
30889;DHT22;51092;50.874;7.024;2023-08-12T05:35:54;20.10;99.90
30889;DHT22;51092;50.874;7.024;2023-08-12T05:36:56;20.10;99.90
30889;DHT22;51092;50.874;7.024;2023-08-12T05:37:58;20.10;99.90
30889;DHT22;51092;50.874;7.024;2023-08-12T05:39:00;20.20;99.90
30889;DHT22;51092;50.874;7.024;2023-08-12T05:40:03;20.10;99.90
30889;DHT22;51092;50.874;7.024;2023-08-12T05:41:09;20.10;99.90
30889;DHT22;51092;50.874;7.024;2023-08-12T05:42:11;20.10;99.90
30889;DHT22;51092;50.874;7.024;2023-08-12T05:43:13;20.10;99.90
30889;DHT22;51092;50.874;7.024;2023-08-12T05:44:15;20.00;99.90
30889;DHT22;51092;50.874;7.024;2023-08-12T05:45:17;20.10;99.90
30889;DHT22;51092;50.874;7.024;2023-08-12T05:46:19;20.00;99.90
30889;DHT22;51092;50.874;7.024;2023-08-12T05:47:21;20.00;99.90
30889;DHT22;51092;50.874;7.024;2023-08-12T05:48:25;20.00;99.90
30889;DHT22;51092;50.874;7.024;2023-08-12T05:49:26;20.00;99.90
30889;DHT22;51092;50.874;7.024;2023-08-12T05:50:29;20.00;99.90
30889;DHT22;51092;50.874;7.024;2023-08-12T05:51:30;20.00;99.90
30889;DHT22;51092;50.874;7.024;2023-08-12T05:52:33;19.90;99.90
30889;DHT22;51092;50.874;7.024;2023-08-12T05:53:34;20.00;99.90
30889;DHT22;51092;50.874;7.024;2023-08-12T05:54:37;20.00;99.90
30889;DHT22;51092;50.874;7.024;2023-08-12T05:55:38;20.00;99.90
30889;DHT22;51092;50.874;7.024;2023-08-12T05:56:40;20.00;99.90
30889;DHT22;51092;50.874;7.024;2023-08-12T05:57:42;19.90;99.90
30889;DHT22;51092;50.874;7.024;2023-08-12T05:58:44;19.90;99.90
30889;DHT22;51092;50.874;7.024;2023-08-12T05:59:46;19.90;99.90
30889;DHT22;51092;50.874;7.024;2023-08-12T06:00:49;19.90;99.90
30889;DHT22;51092;50.874;7.024;2023-08-12T06:01:51;19.90;99.90
30889;DHT22;51092;50.874;7.024;2023-08-12T06:02:54;19.90;99.90
30889;DHT22;51092;50.874;7.024;2023-08-12T06:03:56;19.90;99.90
30889;DHT22;51092;50.874;7.024;2023-08-12T06:04:59;19.90;99.90
30889;DHT22;51092;50.874;7.024;2023-08-12T06:06:01;19.80;99.90
30889;DHT22;51092;50.874;7.024;2023-08-12T06:07:04;19.90;99.90
30889;DHT22;51092;50.874;7.024;2023-08-12T06:08:05;19.80;99.90
30889;DHT22;51092;50.874;7.024;2023-08-12T06:09:08;19.90;99.90
30889;DHT22;51092;50.874;7.024;2023-08-12T06:10:09;19.80;99.90
30889;DHT22;51092;50.874;7.024;2023-08-12T06:11:10;19.80;99.90
30889;DHT22;51092;50.874;7.024;2023-08-12T06:12:12;19.80;99.90
30889;DHT22;51092;50.874;7.024;2023-08-12T06:13:13;19.80;99.90
30889;DHT22;51092;50.874;7.024;2023-08-12T06:14:15;19.80;99.90
30889;DHT22;51092;50.874;7.024;2023-08-12T06:15:17;19.80;99.90
30889;DHT22;51092;50.874;7.024;2023-08-12T06:16:20;19.80;99.90
30889;DHT22;51092;50.874;7.024;2023-08-12T06:17:21;19.80;99.90
30889;DHT22;51092;50.874;7.024;2023-08-12T06:18:23;19.70;99.90
30889;DHT22;51092;50.874;7.024;2023-08-12T06:19:26;19.70;99.90
30889;DHT22;51092;50.874;7.024;2023-08-12T06:20:29;19.60;99.90
30889;DHT22;51092;50.874;7.024;2023-08-12T06:21:30;19.60;99.90
30889;DHT22;51092;50.874;7.024;2023-08-12T06:22:33;19.50;99.90
30889;DHT22;51092;50.874;7.024;2023-08-12T06:23:34;19.50;99.90
30889;DHT22;51092;50.874;7.024;2023-08-12T06:24:37;19.50;99.90
30889;DHT22;51092;50.874;7.024;2023-08-12T06:25:38;19.50;99.90
30889;DHT22;51092;50.874;7.024;2023-08-12T06:26:41;19.50;99.90
30889;DHT22;51092;50.874;7.024;2023-08-12T06:27:43;19.40;99.90
30889;DHT22;51092;50.874;7.024;2023-08-12T06:28:45;19.40;99.90
30889;DHT22;51092;50.874;7.024;2023-08-12T06:29:47;19.40;99.90
30889;DHT22;51092;50.874;7.024;2023-08-12T06:30:49;19.40;99.90
30889;DHT22;51092;50.874;7.024;2023-08-12T06:31:52;19.40;99.90
30889;DHT22;51092;50.874;7.024;2023-08-12T06:32:54;19.30;99.90
30889;DHT22;51092;50.874;7.024;2023-08-12T06:33:56;19.30;99.90